createdAt,value
2018-12-26T00:00:26.932Z,28.63
2018-12-26T00:02:54.362Z,30.93
2018-12-26T00:05:21.848Z,24.50
2018-12-26T00:07:49.380Z,26.77
2018-12-26T00:10:16.863Z,25.77
2018-12-26T00:12:44.340Z,19.97
2018-12-26T00:15:12.343Z,18.53
2018-12-26T00:17:39.945Z,19.47
2018-12-26T00:20:07.452Z,18.50
2018-12-26T00:22:34.847Z,14.10
2018-12-26T00:25:02.333Z,19.20
2018-12-26T00:27:29.757Z,15.97
2018-12-26T00:29:57.316Z,16.03
2018-12-26T00:32:24.769Z,23.23
2018-12-26T00:34:52.142Z,23.77
2018-12-26T00:37:19.482Z,16.57
2018-12-26T00:39:47.994Z,21.70
2018-12-26T00:42:15.531Z,24.80
2018-12-26T00:44:42.996Z,19.60
2018-12-26T00:47:10.443Z,15.80
2018-12-26T00:49:37.889Z,20.30
2018-12-26T00:52:05.293Z,17.50
2018-12-26T00:54:32.668Z,20.27
2018-12-26T00:57:00.055Z,22.30
2018-12-26T00:59:27.481Z,17.57
2018-12-26T01:01:54.948Z,13.60
2018-12-26T01:04:22.740Z,21.87
2018-12-26T01:06:50.218Z,17.80
2018-12-26T01:09:17.590Z,15.03
2018-12-26T01:11:44.952Z,18.90
2018-12-26T01:14:12.422Z,20.93
2018-12-26T01:16:39.894Z,25.00
2018-12-26T01:19:07.226Z,18.90
2018-12-26T01:21:34.581Z,18.27
2018-12-26T01:24:02.042Z,18.37
2018-12-26T01:26:29.461Z,18.47
2018-12-26T01:28:56.814Z,16.83
2018-12-26T01:31:24.204Z,15.27
2018-12-26T01:33:51.704Z,17.57
2018-12-26T01:36:19.175Z,19.73
2018-12-26T01:38:46.625Z,13.87
2018-12-26T01:41:14.084Z,18.93
2018-12-26T01:43:41.538Z,20.67
2018-12-26T01:46:09.003Z,21.83
2018-12-26T01:48:36.418Z,21.77
2018-12-26T01:51:03.797Z,19.03
2018-12-26T01:53:31.185Z,15.17
2018-12-26T01:55:58.637Z,18.93
2018-12-26T01:58:26.115Z,19.03
2018-12-26T02:00:53.489Z,18.67
2018-12-26T02:03:21.047Z,18.93
2018-12-26T02:05:48.446Z,17.57
2018-12-26T02:08:15.931Z,17.80
2018-12-26T02:10:43.420Z,13.93
2018-12-26T02:13:10.887Z,20.03
2018-12-26T02:15:38.344Z,21.80
2018-12-26T02:18:05.935Z,17.03
2018-12-26T02:20:33.404Z,17.07
2018-12-26T02:23:00.914Z,21.30
2018-12-26T02:25:28.319Z,11.37
2018-12-26T02:27:55.781Z,16.93
2018-12-26T02:30:23.237Z,14.17
2018-12-26T02:32:50.741Z,17.30
2018-12-26T02:35:18.197Z,14.57
2018-12-26T02:37:45.676Z,16.40
2018-12-26T02:40:13.201Z,15.13
2018-12-26T02:42:40.615Z,14.90
2018-12-26T02:45:08.060Z,14.73
2018-12-26T02:47:35.540Z,19.53
2018-12-26T02:50:03.668Z,14.70
2018-12-26T02:52:31.118Z,19.03
2018-12-26T02:54:58.503Z,11.70
2018-12-26T02:57:25.891Z,14.23
2018-12-26T02:59:53.343Z,15.67
2018-12-26T03:02:20.830Z,14.23
2018-12-26T03:04:48.311Z,12.23
2018-12-26T03:07:15.755Z,14.23
2018-12-26T03:09:43.224Z,16.20
2018-12-26T03:12:10.717Z,13.60
2018-12-26T03:14:38.062Z,16.13
2018-12-26T03:17:05.418Z,14.03
2018-12-26T03:19:32.921Z,17.27
2018-12-26T03:22:00.377Z,17.03
2018-12-26T03:24:27.859Z,14.17
2018-12-26T03:26:56.430Z,12.07
2018-12-26T03:29:24.162Z,13.13
2018-12-26T03:31:51.699Z,16.60
2018-12-26T03:34:19.090Z,13.73
2018-12-26T03:36:46.461Z,15.90
2018-12-26T03:39:13.839Z,9.40
2018-12-26T03:41:41.998Z,14.87
2018-12-26T03:44:09.551Z,14.93
2018-12-26T03:46:37.489Z,12.23
2018-12-26T03:49:04.968Z,10.93
2018-12-26T03:51:32.410Z,15.20
2018-12-26T03:53:59.778Z,12.03
2018-12-26T03:56:27.252Z,11.87
2018-12-26T03:58:54.991Z,14.17
2018-12-26T04:01:22.438Z,15.60
2018-12-26T04:03:49.942Z,12.90
2018-12-26T04:06:17.914Z,11.57
2018-12-26T04:08:45.279Z,13.80
2018-12-26T04:11:12.760Z,10.80
2018-12-26T04:13:40.230Z,12.03
2018-12-26T04:16:07.942Z,14.00
2018-12-26T04:18:35.295Z,15.93
2018-12-26T04:21:02.831Z,13.53
2018-12-26T04:23:30.297Z,12.90
2018-12-26T04:25:57.754Z,17.93
2018-12-26T04:28:25.241Z,11.53
2018-12-26T04:30:52.691Z,12.40
2018-12-26T04:33:26.750Z,10.97
2018-12-26T04:35:54.126Z,18.93
2018-12-26T04:38:21.516Z,14.30
2018-12-26T04:40:49.003Z,8.93
2018-12-26T04:43:16.474Z,11.43
2018-12-26T04:45:44.122Z,9.30
2018-12-26T04:48:11.698Z,14.73
2018-12-26T04:50:39.162Z,14.17
2018-12-26T04:53:06.619Z,10.20
2018-12-26T04:55:34.108Z,10.23
2018-12-26T04:58:01.454Z,14.70
2018-12-26T05:00:28.912Z,15.33
2018-12-26T05:02:56.976Z,10.47
2018-12-26T05:05:24.391Z,12.47
2018-12-26T05:07:51.924Z,10.20
2018-12-26T05:10:19.379Z,12.17
2018-12-26T05:12:46.829Z,12.40
2018-12-26T05:15:14.317Z,13.03
2018-12-26T05:17:41.946Z,13.37
2018-12-26T05:20:09.635Z,8.43
2018-12-26T05:22:37.079Z,11.77
2018-12-26T05:25:04.726Z,11.97
2018-12-26T05:27:34.281Z,11.37
2018-12-26T05:30:01.514Z,10.43
2018-12-26T05:32:29.877Z,9.47
2018-12-26T05:34:57.350Z,10.60
2018-12-26T05:37:24.792Z,14.57
2018-12-26T05:39:52.244Z,16.40
2018-12-26T05:42:19.728Z,14.50
2018-12-26T05:44:47.162Z,14.37
2018-12-26T05:47:14.708Z,13.53
2018-12-26T05:49:42.181Z,14.23
2018-12-26T05:52:09.659Z,17.83
2018-12-26T05:54:37.110Z,13.57
2018-12-26T05:57:04.946Z,13.47
2018-12-26T05:59:35.858Z,11.93
2018-12-26T06:02:03.332Z,9.33
2018-12-26T06:04:30.904Z,16.20
2018-12-26T06:06:58.259Z,12.87
2018-12-26T06:12:31.085Z,13.67
2018-12-26T06:14:58.626Z,14.77
2018-12-26T06:17:26.609Z,15.03
2018-12-26T06:19:54.029Z,12.10
2018-12-26T06:22:21.498Z,12.97
2018-12-26T06:24:49.811Z,15.83
2018-12-26T06:27:17.282Z,14.53
2018-12-26T06:29:44.718Z,13.57
2018-12-26T06:32:12.108Z,20.13
2018-12-26T06:34:39.677Z,13.47
2018-12-26T06:37:07.243Z,13.90
2018-12-26T06:39:34.683Z,15.60
2018-12-26T06:42:02.045Z,13.13
2018-12-26T06:44:29.514Z,18.03
2018-12-26T06:46:56.997Z,11.47
2018-12-26T06:49:24.513Z,11.97
2018-12-26T06:51:52.894Z,18.10
2018-12-26T06:54:20.386Z,19.97
2018-12-26T06:56:47.771Z,15.40
2018-12-26T06:59:15.262Z,14.33
2018-12-26T07:01:42.624Z,11.90
2018-12-26T07:04:10.162Z,12.80
2018-12-26T07:06:37.721Z,12.03
2018-12-26T07:09:05.881Z,19.53
2018-12-26T07:11:39.736Z,22.50
2018-12-26T07:14:11.117Z,8.40
2018-12-26T07:16:38.590Z,17.53
2018-12-26T07:19:08.975Z,15.03
2018-12-26T07:21:36.579Z,13.17
2018-12-26T07:24:04.440Z,10.90
2018-12-26T07:26:31.801Z,13.00
2018-12-26T07:29:01.309Z,14.90
2018-12-26T07:31:28.699Z,8.20
2018-12-26T07:33:56.153Z,14.30
2018-12-26T07:36:25.547Z,11.33
2018-12-26T07:38:53.061Z,14.83
2018-12-26T07:41:20.547Z,14.70
2018-12-26T07:43:48.239Z,14.63
2018-12-26T07:46:15.727Z,9.27
2018-12-26T07:48:43.498Z,15.33
2018-12-26T07:51:11.020Z,9.47
2018-12-26T07:53:38.380Z,16.93
2018-12-26T07:56:07.573Z,15.87
2018-12-26T07:58:35.093Z,13.17
2018-12-26T08:01:03.114Z,17.07
2018-12-26T08:03:30.697Z,14.10
2018-12-26T08:05:58.135Z,14.73
2018-12-26T08:08:26.093Z,13.30
2018-12-26T08:10:53.493Z,13.57
2018-12-26T08:13:21.033Z,12.00
2018-12-26T08:15:48.557Z,18.03
2018-12-26T08:18:16.113Z,18.63
2018-12-26T08:20:44.110Z,14.50
2018-12-26T08:23:11.577Z,14.33
2018-12-26T08:25:39.098Z,16.03
2018-12-26T08:28:06.529Z,18.30
2018-12-26T08:30:33.939Z,16.07
2018-12-26T08:33:01.961Z,15.10
2018-12-26T08:35:29.864Z,16.47
2018-12-26T08:37:57.429Z,11.87
2018-12-26T08:40:24.964Z,22.90
2018-12-26T08:42:52.512Z,14.87
2018-12-26T08:45:19.989Z,16.33
2018-12-26T08:47:47.456Z,13.27
2018-12-26T08:50:14.892Z,13.43
2018-12-26T08:52:42.278Z,16.03
2018-12-26T08:55:09.756Z,13.77
2018-12-26T08:57:37.248Z,16.47
2018-12-26T09:00:05.557Z,17.97
2018-12-26T09:02:33.300Z,17.57
2018-12-26T09:05:00.754Z,15.00
2018-12-26T09:07:28.186Z,14.90
2018-12-26T09:09:55.575Z,15.50
2018-12-26T09:12:22.918Z,12.60
2018-12-26T09:14:50.391Z,16.63
2018-12-26T09:17:17.836Z,12.00
2018-12-26T09:19:45.297Z,16.73
2018-12-26T09:22:12.662Z,14.63
2018-12-26T09:24:40.101Z,13.53
2018-12-26T09:27:11.194Z,15.40
2018-12-26T09:29:38.627Z,17.43
2018-12-26T09:32:06.093Z,15.57
2018-12-26T09:34:33.576Z,14.23
2018-12-26T09:37:01.075Z,13.60
2018-12-26T09:39:28.585Z,18.43
2018-12-26T09:41:55.929Z,16.07
2018-12-26T09:44:23.389Z,15.83
2018-12-26T09:46:50.905Z,16.53
2018-12-26T09:49:18.378Z,13.90
2018-12-26T09:51:45.829Z,16.67
2018-12-26T09:54:13.333Z,17.20
2018-12-26T09:56:40.812Z,15.30
2018-12-26T09:59:09.424Z,16.20
2018-12-26T10:01:38.970Z,15.97
2018-12-26T10:04:06.436Z,20.27
2018-12-26T10:06:34.037Z,12.53
2018-12-26T10:09:01.513Z,17.97
2018-12-26T10:11:28.965Z,14.63
2018-12-26T10:13:56.423Z,12.73
2018-12-26T10:16:23.900Z,18.33
2018-12-26T10:18:51.347Z,17.83
2018-12-26T10:21:18.814Z,16.60
2018-12-26T10:23:46.164Z,14.63
2018-12-26T10:26:13.589Z,13.67
2018-12-26T10:28:41.036Z,14.50
2018-12-26T10:31:09.472Z,20.10
2018-12-26T10:33:36.961Z,18.07
2018-12-26T10:36:04.472Z,18.67
2018-12-26T10:38:31.973Z,14.27
2018-12-26T10:40:59.389Z,15.67
2018-12-26T10:43:26.922Z,15.87
2018-12-26T10:45:54.401Z,14.30
2018-12-26T10:48:21.878Z,19.67
2018-12-26T10:50:49.319Z,18.33
2018-12-26T10:53:16.926Z,15.17
2018-12-26T10:55:44.438Z,19.10
2018-12-26T10:58:11.950Z,16.50
2018-12-26T11:00:39.455Z,15.83
2018-12-26T11:03:06.913Z,15.83
2018-12-26T11:05:34.405Z,18.83
2018-12-26T11:08:01.882Z,14.73
2018-12-26T11:10:29.425Z,16.70
2018-12-26T11:12:56.980Z,14.63
2018-12-26T11:15:24.511Z,15.50
2018-12-26T11:17:52.306Z,19.13
2018-12-26T11:20:20.115Z,15.83
2018-12-26T11:22:47.636Z,16.40
2018-12-26T11:25:15.210Z,18.13
2018-12-26T11:27:42.686Z,16.03
2018-12-26T11:30:10.628Z,17.17
2018-12-26T11:32:38.120Z,13.13
2018-12-26T11:35:05.643Z,21.83
2018-12-26T11:37:33.136Z,22.20
2018-12-26T11:40:00.577Z,16.03
2018-12-26T11:42:28.022Z,17.30
2018-12-26T11:44:55.394Z,18.43
2018-12-26T11:47:26.503Z,22.87
2018-12-26T11:49:53.958Z,17.57
2018-12-26T11:52:21.688Z,18.90
2018-12-26T11:54:49.273Z,21.00
2018-12-26T11:57:16.762Z,22.97
2018-12-26T11:59:45.121Z,20.57
2018-12-26T12:02:20.515Z,19.80
2018-12-26T12:04:43.084Z,22.57
2018-12-26T12:07:10.582Z,16.87
2018-12-26T12:09:39.259Z,23.80
2018-12-26T12:12:06.626Z,16.63
2018-12-26T12:14:33.988Z,16.80
2018-12-26T12:17:01.511Z,15.23
2018-12-26T12:19:28.952Z,16.63
2018-12-26T12:21:57.065Z,16.93
2018-12-26T12:24:24.546Z,16.20
2018-12-26T12:26:52.045Z,13.97
2018-12-26T12:29:19.564Z,15.83
2018-12-26T12:31:47.148Z,17.50
2018-12-26T12:34:14.604Z,21.27
2018-12-26T12:36:42.134Z,18.13
2018-12-26T12:39:09.597Z,15.77
2018-12-26T12:41:37.069Z,17.93
2018-12-26T12:44:04.545Z,15.00
2018-12-26T12:46:33.267Z,14.77
2018-12-26T12:49:00.694Z,14.60
2018-12-26T12:51:28.170Z,15.97
2018-12-26T12:53:55.628Z,16.23
2018-12-26T12:56:23.101Z,16.57
2018-12-26T12:58:50.590Z,16.03
2018-12-26T13:01:18.035Z,17.33
2018-12-26T13:03:46.638Z,13.37
2018-12-26T13:06:14.293Z,12.93
2018-12-26T13:08:42.666Z,13.53
2018-12-26T13:11:10.126Z,14.57
2018-12-26T13:13:37.550Z,15.70
2018-12-26T13:16:04.907Z,13.33
2018-12-26T13:18:32.304Z,14.03
2018-12-26T13:20:59.770Z,14.80
2018-12-26T13:23:27.185Z,12.23
2018-12-26T13:25:54.684Z,12.57
2018-12-26T13:28:22.057Z,17.40
2018-12-26T13:30:49.487Z,17.93
2018-12-26T13:33:19.028Z,12.97
2018-12-26T13:35:46.465Z,13.30
2018-12-26T13:38:13.914Z,17.00
2018-12-26T13:40:41.287Z,15.33
2018-12-26T13:43:08.655Z,17.17
2018-12-26T13:45:36.152Z,14.57
2018-12-26T13:48:03.641Z,16.90
2018-12-26T13:50:31.146Z,15.07
2018-12-26T13:52:58.819Z,15.97
2018-12-26T13:55:26.348Z,19.63
2018-12-26T13:57:53.875Z,13.20
2018-12-26T14:00:21.325Z,16.87
2018-12-26T14:02:48.817Z,17.07
2018-12-26T14:05:16.297Z,16.03
2018-12-26T14:07:43.730Z,17.53
2018-12-26T14:10:11.147Z,13.27
2018-12-26T14:12:38.512Z,15.57
2018-12-26T14:15:07.151Z,13.13
2018-12-26T14:17:34.689Z,15.13
2018-12-26T14:20:02.173Z,15.27
2018-12-26T14:22:29.613Z,13.33
2018-12-26T14:24:57.099Z,13.27
2018-12-26T14:27:29.255Z,12.50
2018-12-26T14:29:53.935Z,11.53
2018-12-26T14:32:21.394Z,15.73
2018-12-26T14:34:48.750Z,12.07
2018-12-26T14:37:16.261Z,12.10
2018-12-26T14:39:43.673Z,11.97
2018-12-26T14:42:11.135Z,13.80
2018-12-26T14:44:38.595Z,14.07
2018-12-26T14:47:06.080Z,10.37
2018-12-26T14:49:33.445Z,12.30
2018-12-26T14:52:00.983Z,13.03
2018-12-26T14:54:28.453Z,16.73
2018-12-26T14:56:55.923Z,11.10
2018-12-26T14:59:23.436Z,13.40
2018-12-26T15:01:50.902Z,11.20
2018-12-26T15:04:18.394Z,13.27
2018-12-26T15:06:45.931Z,14.13
2018-12-26T15:09:13.485Z,15.17
2018-12-26T15:11:41.011Z,11.40
2018-12-26T15:14:08.543Z,14.87
2018-12-26T15:16:36.010Z,13.00
2018-12-26T15:19:17.511Z,13.97
2018-12-26T15:21:44.990Z,13.10
2018-12-26T15:24:12.482Z,16.50
2018-12-26T15:26:39.986Z,15.93
2018-12-26T15:29:07.464Z,14.57
2018-12-26T15:31:34.981Z,16.13
2018-12-26T15:34:02.583Z,13.97
2018-12-26T15:36:30.113Z,13.20
2018-12-26T15:38:57.636Z,15.27
2018-12-26T15:41:25.155Z,13.40
2018-12-26T15:43:52.643Z,14.40
2018-12-26T15:46:20.036Z,15.37
2018-12-26T15:48:47.636Z,14.37
2018-12-26T15:51:15.209Z,15.67
2018-12-26T15:53:44.718Z,19.93
2018-12-26T15:56:12.325Z,36.27
2018-12-26T15:58:39.802Z,30.57
2018-12-26T16:01:07.274Z,32.30
2018-12-26T16:03:34.745Z,25.00
2018-12-26T16:06:02.255Z,32.73
2018-12-26T16:08:29.720Z,28.60
2018-12-26T16:10:57.231Z,35.03
2018-12-26T16:13:24.720Z,37.90
2018-12-26T16:15:52.879Z,39.60
2018-12-26T16:18:20.390Z,33.13
2018-12-26T16:20:47.889Z,33.10
2018-12-26T16:23:15.396Z,51.40
2018-12-26T16:25:42.856Z,31.47
2018-12-26T16:28:10.356Z,22.33
2018-12-26T16:30:45.989Z,19.07
2018-12-26T16:33:06.970Z,20.57
2018-12-26T16:35:34.333Z,29.13
2018-12-26T16:38:02.004Z,20.20
2018-12-26T16:40:29.634Z,25.43
2018-12-26T16:42:57.108Z,18.80
2018-12-26T16:45:24.488Z,18.83
2018-12-26T16:47:51.846Z,14.80
2018-12-26T16:50:26.729Z,13.17
2018-12-26T16:52:48.501Z,15.63
2018-12-26T16:55:15.934Z,19.97
2018-12-26T16:57:43.376Z,24.17
2018-12-26T17:00:10.880Z,17.40
2018-12-26T17:02:38.328Z,23.87
2018-12-26T17:05:05.765Z,17.03
2018-12-26T17:07:33.205Z,20.17
2018-12-26T17:10:00.689Z,17.87
2018-12-26T17:12:28.141Z,22.33
2018-12-26T17:14:55.639Z,22.30
2018-12-26T17:17:22.984Z,24.17
2018-12-26T17:19:50.334Z,19.57
2018-12-26T17:22:17.714Z,19.53
2018-12-26T17:24:45.159Z,19.53
2018-12-26T17:27:12.502Z,25.73
2018-12-26T17:29:39.886Z,31.10
2018-12-26T17:32:07.320Z,32.57
2018-12-26T17:34:34.816Z,26.87
2018-12-26T17:37:02.299Z,26.77
2018-12-26T17:39:29.789Z,18.23
2018-12-26T17:41:57.305Z,22.43
2018-12-26T17:44:24.656Z,15.60
2018-12-26T17:46:52.106Z,28.27
2018-12-26T17:49:19.568Z,24.33
2018-12-26T17:51:46.924Z,33.60
2018-12-26T17:54:45.248Z,25.00
2018-12-26T17:57:32.417Z,18.57
2018-12-26T18:00:34.087Z,19.80
2018-12-26T18:03:01.632Z,18.90
2018-12-26T18:05:29.168Z,21.53
2018-12-26T18:07:56.910Z,20.27
2018-12-26T18:10:24.391Z,17.90
2018-12-26T18:12:51.832Z,15.73
2018-12-26T18:15:19.297Z,18.10
2018-12-26T18:17:46.778Z,25.37
2018-12-26T18:20:14.337Z,18.87
2018-12-26T18:22:41.787Z,13.70
2018-12-26T18:25:09.252Z,11.43
2018-12-26T18:27:36.621Z,12.33
2018-12-26T18:30:07.750Z,13.57
2018-12-26T18:32:35.275Z,13.90
2018-12-26T18:35:02.736Z,13.30
2018-12-26T18:37:30.173Z,15.57
2018-12-26T18:39:57.651Z,23.10
2018-12-26T18:42:25.024Z,21.90
2018-12-26T18:44:52.488Z,19.97
2018-12-26T18:47:19.948Z,19.07
2018-12-26T18:49:47.323Z,25.00
2018-12-26T18:52:14.815Z,28.87
2018-12-26T18:54:42.294Z,19.47
2018-12-26T18:57:09.745Z,20.50
2018-12-26T18:59:37.211Z,26.10
2018-12-26T19:02:04.729Z,29.10
2018-12-26T19:04:32.167Z,26.23
2018-12-26T19:06:59.597Z,20.77
2018-12-26T19:09:26.936Z,19.77
2018-12-26T19:11:54.325Z,16.20
2018-12-26T19:14:21.771Z,20.23
2018-12-26T19:16:49.215Z,27.77
2018-12-26T19:19:16.701Z,16.87
2018-12-26T19:21:44.115Z,25.10
2018-12-26T19:24:11.493Z,24.07
2018-12-26T19:26:38.863Z,40.13
2018-12-26T19:29:06.378Z,23.47
2018-12-26T19:31:39.378Z,27.70
2018-12-26T19:34:03.078Z,25.10
2018-12-26T19:36:30.578Z,27.97
2018-12-26T19:38:58.060Z,23.13
2018-12-26T19:41:25.551Z,23.37
2018-12-26T19:43:53.084Z,20.13
2018-12-26T19:46:20.560Z,22.00
2018-12-26T19:48:48.014Z,29.97
2018-12-26T19:51:15.686Z,21.93
2018-12-26T19:53:43.152Z,27.27
2018-12-26T19:56:12.993Z,24.97
2018-12-26T19:58:40.496Z,25.20
2018-12-26T20:01:08.016Z,23.90
2018-12-26T20:03:35.491Z,33.57
2018-12-26T20:06:02.877Z,29.93
2018-12-26T20:08:30.385Z,17.47
2018-12-26T20:10:59.981Z,22.90
2018-12-26T20:13:27.466Z,21.40
2018-12-26T20:15:54.925Z,27.43
2018-12-26T20:18:25.109Z,15.70
2018-12-26T20:20:52.745Z,23.13
2018-12-26T20:23:20.204Z,16.97
2018-12-26T20:25:47.709Z,22.03
2018-12-26T20:28:16.093Z,17.67
2018-12-26T20:30:44.701Z,18.13
2018-12-26T20:33:13.590Z,16.40
2018-12-26T20:35:43.374Z,22.73
2018-12-26T20:38:10.855Z,20.77
2018-12-26T20:40:38.578Z,21.50
2018-12-26T20:43:06.228Z,18.30
2018-12-26T20:45:33.603Z,17.47
2018-12-26T20:48:03.583Z,18.97
2018-12-26T20:50:31.132Z,18.93
2018-12-26T20:53:00.835Z,20.23
2018-12-26T20:55:30.900Z,19.33
2018-12-26T20:57:58.389Z,17.87
2018-12-26T21:00:25.895Z,18.10
2018-12-26T21:02:55.229Z,21.20
2018-12-26T21:05:22.705Z,23.30
2018-12-26T21:07:51.959Z,24.03
2018-12-26T21:10:19.378Z,26.30
2018-12-26T21:12:46.947Z,21.17
2018-12-26T21:15:14.446Z,24.20
2018-12-26T21:17:43.508Z,23.67
2018-12-26T21:20:10.976Z,17.90
2018-12-26T21:22:40.486Z,17.13
2018-12-26T21:25:10.941Z,21.43
2018-12-26T21:27:39.597Z,25.47
2018-12-26T21:30:12.620Z,16.57
2018-12-26T21:32:40.242Z,15.67
2018-12-26T21:35:09.645Z,14.37
2018-12-26T21:37:37.210Z,13.87
2018-12-26T21:40:05.184Z,18.97
2018-12-26T21:42:32.742Z,20.13
2018-12-26T21:45:00.185Z,17.80
2018-12-26T21:47:27.838Z,15.23
2018-12-26T21:49:55.249Z,17.07
2018-12-26T21:52:22.598Z,19.33
2018-12-26T21:54:49.943Z,15.37
2018-12-26T21:57:18.720Z,17.20
2018-12-26T21:59:46.170Z,17.90
2018-12-26T22:02:13.612Z,16.17
2018-12-26T22:04:40.963Z,14.13
2018-12-26T22:07:08.449Z,16.60
2018-12-26T22:09:35.972Z,22.50
2018-12-26T22:12:03.431Z,16.33
2018-12-26T22:14:30.843Z,15.07
2018-12-26T22:16:58.322Z,13.47
2018-12-26T22:19:25.685Z,14.07
2018-12-26T22:21:53.165Z,17.57
2018-12-26T22:24:20.648Z,14.37
2018-12-26T22:26:48.111Z,17.23
2018-12-26T22:29:15.532Z,21.23
2018-12-26T22:31:42.965Z,15.23
2018-12-26T22:34:10.436Z,16.10
2018-12-26T22:36:37.857Z,22.10
2018-12-26T22:39:05.947Z,15.80
2018-12-26T22:41:33.406Z,13.87
2018-12-26T22:44:00.938Z,15.53
2018-12-26T22:46:28.304Z,14.67
2018-12-26T22:48:55.659Z,15.30
2018-12-26T22:51:23.114Z,13.37
2018-12-26T22:53:50.510Z,15.53
2018-12-26T22:56:17.953Z,13.37
2018-12-26T22:58:45.650Z,14.00
2018-12-26T23:01:13.286Z,12.20
2018-12-26T23:03:40.615Z,11.87
2018-12-26T23:06:08.021Z,18.17
2018-12-26T23:08:35.574Z,15.23
2018-12-26T23:11:03.049Z,14.50
2018-12-26T23:13:31.444Z,16.33
2018-12-26T23:15:58.866Z,13.57
2018-12-26T23:18:26.253Z,18.60
2018-12-26T23:20:53.623Z,14.77
2018-12-26T23:23:20.984Z,15.77
2018-12-26T23:25:48.338Z,12.57
2018-12-26T23:28:15.797Z,15.23
2018-12-26T23:30:43.238Z,16.37
2018-12-26T23:33:10.698Z,9.40
2018-12-26T23:35:38.149Z,16.53
2018-12-26T23:38:05.613Z,16.20
2018-12-26T23:40:33.107Z,10.63
2018-12-26T23:43:00.573Z,9.80
2018-12-26T23:45:28.004Z,14.00
2018-12-26T23:47:55.398Z,11.93
2018-12-26T23:53:23.227Z,10.30
2018-12-26T23:55:50.628Z,11.47
2018-12-26T23:58:17.989Z,14.13
